East Pond Data 2008
Notes
Date6/24/2008
LocationColby A
InvestigatorDelia, Zac, brian
Windlight
Sky
Secchi6.8meters
Notes
Day Number175
- DepthDaynumberTimeDate% O2 SatDateTimeTemperatureConductivityOxygenPressureDepthpHpH mVORPFluor.Bottom DepthLatitudeLongitudeGPS TimeTrue HeadingWater SpeedWater TempEastingNorthing
1.32E-0117574.836/24/2008#NAME?1.59E+094.49E+032.27E+016.00E+017.96E+001.45E+01-1.32E-015.81E+003.24E+011.71E+02-6.00E-016.70E+004.46E+01-6.98E+014.97E+040.00E+000.00E+001.95E+014.38E+054.94E+06
1.32E-0117574.926/24/2008#NAME?1.59E+094.50E+032.27E+016.60E+017.85E+001.45E+01-1.32E-015.83E+003.18E+011.71E+020.00E+006.80E+000.00E+000.00E+006.84E+040.00E+000.00E+001.96E+015.93E+06-6.99E+04
1.32E-0117575.006/24/2008#NAME?1.59E+094.50E+032.27E+016.20E+017.78E+001.45E+01-1.32E-015.85E+003.06E+011.69E+02-1.00E-016.80E+004.46E+01-6.98E+014.98E+040.00E+000.00E+001.96E+014.38E+054.94E+06
1.39E-0117575.086/24/2008#NAME?1.59E+094.50E+032.27E+016.50E+017.73E+001.45E+01-1.39E-015.87E+002.98E+011.68E+024.00E-016.80E+004.46E+01-6.98E+014.98E+040.00E+000.00E+001.96E+014.38E+054.94E+06
4.80E-0217575.176/24/2008#NAME?1.59E+094.51E+032.28E+015.90E+017.66E+001.46E+01-4.80E-025.90E+002.86E+011.68E+023.00E-016.70E+004.46E+01-6.98E+014.98E+040.00E+000.00E+001.96E+014.38E+054.94E+06
-1.70E-0217575.256/24/2008#NAME?1.59E+094.52E+032.27E+016.80E+017.60E+001.47E+011.70E-025.88E+002.94E+011.68E+027.00E-016.70E+004.46E+01-6.98E+014.98E+040.00E+000.00E+001.96E+014.38E+054.94E+06
-8.60E-0217575.336/24/2008#NAME?1.59E+094.52E+032.27E+016.00E+017.57E+001.48E+018.60E-025.91E+002.82E+011.67E+02-1.00E-016.80E+004.46E+01-6.98E+014.98E+040.00E+000.00E+001.96E+014.38E+054.94E+06
-1.28E-0117575.426/24/2008#NAME?1.59E+094.52E+032.26E+016.60E+017.46E+001.49E+011.28E-015.92E+002.73E+011.66E+022.00E-016.70E+004.46E+01-6.98E+014.98E+040.00E+000.00E+001.97E+014.38E+054.94E+06
-1.79E-0117575.506/24/2008#NAME?1.59E+094.53E+032.26E+016.80E+017.45E+001.50E+011.79E-015.93E+002.71E+011.66E+022.00E-016.80E+004.46E+01-6.98E+014.98E+040.00E+000.00E+001.96E+014.38E+054.94E+06
-2.55E-0117575.586/24/2008#NAME?1.59E+094.54E+032.25E+015.70E+017.41E+001.51E+012.55E-015.93E+002.69E+011.66E+027.00E-016.70E+004.46E+01-6.98E+014.98E+040.00E+000.00E+001.96E+014.38E+054.94E+06
-3.48E-0117575.676/24/2008#NAME?1.59E+094.54E+032.25E+016.60E+017.35E+001.52E+013.48E-015.95E+002.63E+011.65E+021.10E+006.70E+004.46E+01-6.98E+014.98E+040.00E+000.00E+001.96E+014.38E+054.94E+06
-3.92E-0117575.756/24/2008#NAME?1.59E+094.54E+032.24E+016.50E+017.30E+001.53E+013.92E-015.97E+002.52E+011.64E+021.40E+006.70E+004.46E+01-6.98E+014.98E+040.00E+000.00E+001.96E+014.38E+054.94E+06
-4.38E-0117575.836/24/2008#NAME?1.59E+094.55E+032.23E+016.10E+017.27E+001.53E+014.38E-015.97E+002.53E+011.64E+021.30E+006.70E+004.46E+01-6.98E+014.98E+040.00E+000.00E+001.96E+014.38E+054.94E+06
-4.97E-0117575.926/24/2008#NAME?1.59E+094.56E+032.20E+017.00E+017.21E+001.54E+014.97E-015.98E+002.47E+011.65E+021.40E+006.80E+004.46E+01-6.98E+014.98E+040.00E+000.00E+001.96E+014.38E+054.94E+06
-5.73E-0117576.006/24/2008#NAME?1.59E+094.56E+032.18E+016.00E+017.16E+001.55E+015.73E-015.99E+002.41E+011.65E+029.00E-016.70E+004.46E+01-6.98E+014.98E+040.00E+000.00E+001.97E+014.38E+054.94E+06
-6.74E-0117576.086/24/2008#NAME?1.59E+094.56E+032.16E+016.20E+017.12E+001.57E+016.74E-016.00E+002.38E+011.65E+021.40E+006.70E+004.46E+01-6.98E+014.98E+040.00E+000.00E+001.97E+014.38E+054.94E+06
-7.84E-0117576.176/24/2008#NAME?1.59E+094.57E+032.15E+016.70E+017.11E+001.58E+017.84E-015.98E+002.45E+011.65E+021.10E+006.80E+004.46E+01-6.98E+014.99E+040.00E+000.00E+001.97E+014.38E+054.94E+06
-8.82E-0117576.256/24/2008#NAME?1.59E+094.58E+032.14E+016.10E+017.11E+001.60E+018.82E-015.97E+002.50E+011.65E+021.20E+006.70E+004.46E+01-6.98E+014.99E+040.00E+000.00E+001.97E+014.38E+054.94E+06
-9.75E-0117576.336/24/2008#NAME?1.59E+094.58E+032.13E+016.10E+017.07E+001.61E+019.75E-015.98E+002.44E+011.64E+027.00E-016.80E+004.46E+01-6.98E+014.99E+040.00E+000.00E+001.97E+014.38E+054.94E+06
-1.06E+0017576.426/24/2008#NAME?1.59E+094.58E+032.13E+016.10E+016.98E+001.62E+011.06E+006.01E+002.32E+011.64E+027.00E-016.80E+004.46E+01-6.98E+014.99E+040.00E+000.00E+001.97E+014.38E+054.94E+06
-1.17E+0017576.506/24/2008#NAME?1.59E+094.59E+032.13E+016.30E+016.95E+001.64E+011.17E+006.02E+002.29E+011.64E+029.00E-016.80E+004.46E+01-6.98E+014.99E+040.00E+000.00E+001.97E+014.38E+054.94E+06
-1.27E+0017576.586/24/2008#NAME?1.59E+094.60E+032.12E+016.00E+016.90E+001.65E+011.27E+005.99E+002.43E+011.65E+021.20E+006.80E+004.46E+01-6.98E+014.99E+040.00E+000.00E+001.97E+014.38E+054.94E+06
-1.37E+0017576.676/24/2008#NAME?1.59E+094.60E+032.12E+016.30E+016.87E+001.67E+011.37E+005.99E+002.42E+011.65E+021.50E+006.70E+004.46E+01-6.98E+014.99E+040.00E+000.00E+001.97E+014.38E+054.94E+06
-1.45E+0017576.756/24/2008#NAME?1.59E+094.60E+032.12E+016.50E+016.80E+001.68E+011.45E+005.99E+002.39E+011.64E+021.10E+006.70E+004.46E+01-6.98E+014.99E+040.00E+000.00E+001.97E+014.38E+054.94E+06
-1.52E+0017576.836/24/2008#NAME?1.59E+094.61E+032.11E+016.50E+016.77E+001.69E+011.52E+005.99E+002.41E+011.65E+021.10E+006.70E+004.46E+01-6.98E+014.99E+040.00E+000.00E+001.97E+014.38E+054.94E+06
-1.59E+0017576.926/24/2008#NAME?1.59E+094.62E+032.11E+015.70E+016.72E+001.70E+011.59E+005.99E+002.42E+011.65E+021.10E+006.70E+004.46E+01-6.98E+014.99E+040.00E+000.00E+001.97E+014.38E+054.94E+06
-1.65E+0017577.006/24/2008#NAME?1.59E+094.62E+032.11E+016.00E+016.69E+001.71E+011.65E+005.99E+002.39E+011.65E+021.40E+006.60E+004.46E+01-6.98E+014.99E+040.00E+000.00E+001.97E+014.38E+054.94E+06
-1.75E+0017577.086/24/2008#NAME?1.59E+094.62E+032.10E+016.00E+016.61E+001.72E+011.75E+006.00E+002.36E+011.64E+022.20E+006.70E+004.46E+01-6.98E+014.99E+040.00E+000.00E+001.97E+014.38E+054.94E+06
-1.84E+0017577.176/24/2008#NAME?1.59E+094.63E+032.10E+016.30E+016.57E+001.73E+011.84E+006.00E+002.35E+011.65E+021.90E+006.70E+004.46E+01-6.98E+014.99E+040.00E+000.00E+001.97E+014.38E+054.94E+06
-1.94E+0017577.256/24/2008#NAME?1.59E+094.64E+032.10E+016.20E+016.54E+001.75E+011.94E+005.97E+002.48E+011.66E+022.50E+006.70E+004.46E+01-6.98E+014.99E+040.00E+000.00E+001.97E+014.38E+054.94E+06
-2.05E+0017577.336/24/2008#NAME?1.59E+094.64E+032.09E+016.60E+016.50E+001.76E+012.05E+005.98E+002.43E+011.65E+021.50E+006.70E+004.46E+01-6.98E+014.99E+040.00E+000.00E+001.97E+014.38E+054.94E+06
-2.14E+0017577.426/24/2008#NAME?1.59E+094.64E+032.09E+016.30E+016.46E+001.77E+012.14E+006.00E+002.36E+011.65E+021.50E+006.80E+004.46E+01-6.98E+014.99E+040.00E+000.00E+001.97E+014.38E+054.94E+06
-2.22E+0017577.506/24/2008#NAME?1.59E+094.65E+032.09E+016.30E+016.42E+001.79E+012.22E+006.00E+002.38E+011.65E+021.20E+006.70E+004.46E+01-6.98E+014.99E+040.00E+000.00E+001.97E+014.38E+054.94E+06
-2.30E+0017577.586/24/2008#NAME?1.59E+094.66E+032.09E+016.40E+016.41E+001.80E+012.30E+005.99E+002.42E+011.66E+021.70E+006.70E+004.46E+01-6.98E+014.99E+040.00E+000.00E+001.97E+014.38E+054.94E+06
-2.37E+0017577.676/24/2008#NAME?1.59E+094.66E+032.09E+016.30E+016.38E+001.81E+012.37E+006.00E+002.33E+011.65E+022.30E+006.70E+004.46E+01-6.98E+014.99E+040.00E+000.00E+001.97E+014.38E+054.94E+06
-2.42E+0017577.756/24/2008#NAME?1.59E+094.66E+032.09E+016.10E+016.32E+001.81E+012.42E+006.02E+002.26E+011.65E+022.50E+006.80E+004.46E+01-6.98E+015.00E+040.00E+000.00E+001.97E+014.38E+054.94E+06
-2.49E+0017577.836/24/2008#NAME?1.59E+094.67E+032.08E+015.90E+016.28E+001.82E+012.49E+006.01E+002.29E+011.66E+023.00E+006.70E+004.46E+01-6.98E+015.00E+040.00E+000.00E+001.97E+014.38E+054.94E+06
-2.58E+0017577.926/24/2008#NAME?1.59E+094.68E+032.08E+016.40E+016.25E+001.84E+012.58E+005.99E+002.41E+011.67E+023.20E+006.80E+004.46E+01-6.98E+015.00E+040.00E+000.00E+001.97E+014.38E+054.94E+06
-2.66E+0017578.006/24/2008#NAME?1.59E+094.68E+032.08E+016.40E+016.20E+001.85E+012.66E+006.01E+002.33E+011.67E+022.50E+006.80E+004.46E+01-6.98E+015.00E+040.00E+000.00E+001.97E+014.38E+054.94E+06
-2.73E+0017578.086/24/2008#NAME?1.59E+094.68E+032.08E+016.00E+016.16E+001.86E+012.73E+006.03E+002.22E+011.66E+022.50E+006.70E+004.46E+01-6.98E+015.00E+040.00E+000.00E+001.97E+014.38E+054.94E+06
-2.80E+0017578.176/24/2008#NAME?1.59E+094.69E+032.07E+016.10E+016.12E+001.87E+012.80E+006.01E+002.30E+011.67E+021.50E+006.70E+004.46E+01-6.98E+015.00E+040.00E+000.00E+001.97E+014.38E+054.94E+06
-2.89E+0017578.256/24/2008#NAME?1.59E+094.70E+032.07E+016.20E+016.10E+001.88E+012.89E+006.01E+002.30E+011.67E+021.80E+006.70E+004.46E+01-6.98E+015.00E+040.00E+000.00E+001.97E+014.38E+054.94E+06
-2.99E+0017578.336/24/2008#NAME?1.59E+094.70E+032.06E+015.80E+016.09E+001.89E+012.99E+006.01E+002.29E+011.67E+022.20E+006.70E+004.46E+01-6.98E+015.00E+040.00E+000.00E+001.97E+014.38E+054.94E+06
-3.11E+0017578.426/24/2008#NAME?1.59E+094.70E+032.06E+016.30E+016.04E+001.91E+013.11E+006.03E+002.23E+011.67E+022.10E+006.70E+004.46E+01-6.98E+015.00E+040.00E+000.00E+001.97E+014.38E+054.94E+06
-3.24E+0017578.506/24/2008#NAME?1.59E+094.71E+032.06E+015.90E+016.00E+001.93E+013.24E+006.01E+002.31E+011.68E+022.00E+006.70E+004.46E+01-6.98E+015.00E+040.00E+000.00E+001.97E+014.38E+054.94E+06
-3.37E+0017578.586/24/2008#NAME?1.59E+094.72E+032.06E+016.30E+015.98E+001.95E+013.37E+006.00E+002.35E+011.69E+022.40E+006.80E+004.46E+01-6.98E+015.00E+040.00E+000.00E+001.97E+014.38E+054.94E+06
-3.49E+0017578.676/24/2008#NAME?1.59E+094.72E+032.06E+015.90E+015.95E+001.97E+013.49E+006.00E+002.35E+011.68E+023.10E+006.80E+004.46E+01-6.98E+015.00E+040.00E+000.00E+001.97E+014.38E+054.94E+06
-3.63E+0017578.756/24/2008#NAME?1.59E+094.72E+032.06E+016.20E+015.91E+001.99E+013.63E+006.02E+002.25E+011.68E+023.10E+006.80E+004.46E+01-6.98E+015.00E+040.00E+000.00E+001.97E+014.38E+054.94E+06
-3.78E+0017578.836/24/2008#NAME?1.59E+094.73E+032.05E+016.00E+015.88E+002.01E+013.78E+006.00E+002.35E+011.69E+023.20E+006.70E+004.46E+01-6.98E+015.00E+040.00E+000.00E+001.97E+014.38E+054.94E+06
-3.88E+0017578.926/24/2008#NAME?1.59E+094.74E+032.05E+016.10E+015.87E+002.02E+013.88E+005.99E+002.39E+011.69E+022.70E+006.70E+004.46E+01-6.98E+015.00E+040.00E+000.00E+001.97E+014.38E+054.94E+06
-3.98E+0017579.006/24/2008#NAME?1.59E+094.74E+032.05E+016.20E+015.86E+002.04E+013.98E+005.98E+002.42E+011.70E+023.10E+006.80E+004.46E+01-6.98E+015.00E+040.00E+000.00E+001.97E+014.38E+054.94E+06
-4.13E+0017579.086/24/2008#NAME?1.59E+094.74E+032.05E+016.10E+015.84E+002.06E+014.13E+006.00E+002.36E+011.69E+023.30E+006.60E+004.46E+01-6.98E+015.00E+040.00E+000.00E+001.97E+014.38E+054.94E+06
-4.24E+0017579.176/24/2008#NAME?1.59E+094.75E+032.05E+016.20E+015.81E+002.07E+014.24E+006.00E+002.34E+011.69E+022.40E+006.70E+004.46E+01-6.98E+015.00E+040.00E+000.00E+001.97E+014.38E+054.94E+06
-4.36E+0017579.256/24/2008#NAME?1.59E+094.76E+032.05E+015.80E+015.79E+002.09E+014.36E+005.99E+002.38E+011.69E+022.30E+006.80E+004.46E+01-6.98E+015.00E+040.00E+000.00E+001.97E+014.38E+054.94E+06
-4.50E+0017579.336/24/2008#NAME?1.59E+094.76E+032.04E+016.10E+015.75E+002.11E+014.50E+006.00E+002.34E+011.69E+022.10E+006.70E+004.46E+01-6.98E+015.00E+040.00E+000.00E+001.97E+014.38E+054.94E+06
-4.61E+0017579.426/24/2008#NAME?1.59E+094.76E+032.04E+016.10E+015.73E+002.12E+014.61E+006.01E+002.32E+011.68E+022.50E+006.70E+004.46E+01-6.98E+015.00E+040.00E+000.00E+001.97E+014.38E+054.94E+06
-4.69E+0017579.506/24/2008#NAME?1.59E+094.77E+032.03E+016.00E+015.71E+002.14E+014.69E+006.00E+002.36E+011.69E+022.70E+006.70E+004.46E+01-6.98E+015.01E+040.00E+000.00E+001.97E+014.38E+054.94E+06
-4.89E+0017579.586/24/2008#NAME?1.59E+094.78E+032.03E+016.30E+015.65E+002.16E+014.89E+005.98E+002.43E+011.71E+022.70E+006.70E+004.46E+01-6.98E+015.01E+040.00E+000.00E+001.97E+014.38E+054.94E+06
-5.02E+0017579.676/24/2008#NAME?1.59E+094.78E+032.02E+016.10E+015.62E+002.18E+015.02E+005.98E+002.44E+011.71E+022.70E+006.70E+004.46E+01-6.98E+015.01E+040.00E+000.00E+001.97E+014.38E+054.94E+06
-5.13E+0017579.756/24/2008#NAME?1.59E+094.78E+032.02E+016.20E+015.49E+002.20E+015.13E+005.97E+002.47E+011.71E+022.70E+006.70E+004.46E+01-6.98E+015.01E+040.00E+000.00E+001.97E+014.38E+054.94E+06
-5.25E+0017579.836/24/2008#NAME?1.59E+094.79E+032.01E+015.80E+015.43E+002.22E+015.25E+005.95E+002.58E+011.71E+023.10E+006.70E+004.46E+01-6.98E+015.01E+040.00E+000.00E+001.97E+014.38E+054.94E+06
-5.36E+0017579.926/24/2008#NAME?1.59E+094.80E+032.01E+016.10E+015.40E+002.23E+015.36E+005.92E+002.70E+011.72E+022.10E+006.60E+004.46E+01-6.98E+015.01E+040.00E+000.00E+001.97E+014.38E+054.94E+06
-5.48E+0017580.006/24/2008#NAME?1.59E+094.80E+032.00E+016.00E+015.35E+002.25E+015.48E+005.91E+002.75E+011.73E+023.30E+006.80E+004.46E+01-6.98E+015.01E+040.00E+000.00E+001.97E+014.38E+054.94E+06
-5.60E+0017580.086/24/2008#NAME?1.59E+094.80E+032.00E+016.10E+015.25E+002.27E+015.60E+005.91E+002.74E+011.72E+023.20E+006.70E+004.46E+01-6.98E+015.01E+040.00E+000.00E+001.97E+014.38E+054.94E+06
-5.74E+0017580.176/24/2008#NAME?1.59E+094.81E+031.99E+016.10E+015.22E+002.29E+015.74E+005.90E+002.79E+011.73E+022.80E+006.80E+004.46E+01-6.98E+015.01E+040.00E+000.00E+001.97E+014.38E+054.94E+06
-5.85E+0017580.256/24/2008#NAME?1.59E+094.82E+031.98E+015.80E+015.18E+002.30E+015.85E+005.88E+002.87E+011.74E+022.30E+006.80E+004.46E+01-6.98E+015.01E+040.00E+000.00E+001.97E+014.38E+054.94E+06
-5.94E+0017580.336/24/2008#NAME?1.59E+094.82E+031.97E+016.10E+015.14E+002.31E+015.94E+005.89E+002.86E+011.73E+021.60E+006.70E+004.46E+01-6.98E+015.01E+040.00E+000.00E+001.96E+014.38E+054.94E+06